sensor_id;sensor_type;location;lat;lon;timestamp;pressure;altitude;pressure_sealevel;temperature;humidity
58385;BME280;44185;47.844;8.966;2023-08-12T00:02:07;96544.94;;;16.44;100.00
58385;BME280;44185;47.844;8.966;2023-08-12T00:04:32;96547.13;;;16.49;100.00
58385;BME280;44185;47.844;8.966;2023-08-12T00:06:58;96540.47;;;16.53;100.00
58385;BME280;44185;47.844;8.966;2023-08-12T00:09:23;96538.25;;;16.49;100.00
58385;BME280;44185;47.844;8.966;2023-08-12T00:11:49;96527.22;;;16.43;100.00
58385;BME280;44185;47.844;8.966;2023-08-12T00:14:14;96528.03;;;16.36;100.00
58385;BME280;44185;47.844;8.966;2023-08-12T00:16:40;96531.03;;;16.24;100.00
58385;BME280;44185;47.844;8.966;2023-08-12T00:19:07;96528.19;;;16.26;100.00
58385;BME280;44185;47.844;8.966;2023-08-12T00:21:32;96525.84;;;16.22;100.00
58385;BME280;44185;47.844;8.966;2023-08-12T00:23:58;96513.03;;;16.34;100.00
58385;BME280;44185;47.844;8.966;2023-08-12T00:26:23;96518.03;;;16.38;100.00
58385;BME280;44185;47.844;8.966;2023-08-12T00:28:49;96524.22;;;16.38;100.00
58385;BME280;44185;47.844;8.966;2023-08-12T00:31:14;96524.03;;;16.31;100.00
58385;BME280;44185;47.844;8.966;2023-08-12T00:33:40;96524.84;;;16.23;100.00
58385;BME280;44185;47.844;8.966;2023-08-12T00:36:07;96514.50;;;16.29;100.00
58385;BME280;44185;47.844;8.966;2023-08-12T00:38:32;96520.50;;;16.22;100.00
58385;BME280;44185;47.844;8.966;2023-08-12T00:40:58;96525.47;;;16.17;100.00
58385;BME280;44185;47.844;8.966;2023-08-12T00:43:23;96516.69;;;15.98;100.00
58385;BME280;44185;47.844;8.966;2023-08-12T00:45:49;96513.66;;;15.93;100.00
58385;BME280;44185;47.844;8.966;2023-08-12T00:48:16;96513.31;;;15.88;100.00
58385;BME280;44185;47.844;8.966;2023-08-12T00:50:42;96513.31;;;15.88;100.00
58385;BME280;44185;47.844;8.966;2023-08-12T00:53:09;96508.09;;;15.78;100.00
58385;BME280;44185;47.844;8.966;2023-08-12T00:55:36;96509.19;;;15.67;100.00
58385;BME280;44185;47.844;8.966;2023-08-12T00:58:02;96512.22;;;15.72;100.00
58385;BME280;44185;47.844;8.966;2023-08-12T01:00:28;96510.56;;;15.71;100.00
58385;BME280;44185;47.844;8.966;2023-08-12T01:02:56;96502.72;;;15.70;100.00
58385;BME280;44185;47.844;8.966;2023-08-12T01:05:22;96500.22;;;15.68;100.00
58385;BME280;44185;47.844;8.966;2023-08-12T01:07:47;96501.91;;;15.77;100.00
58385;BME280;44185;47.844;8.966;2023-08-12T01:10:15;96499.13;;;15.79;100.00
58385;BME280;44185;47.844;8.966;2023-08-12T01:12:47;96503.75;;;15.77;100.00
58385;BME280;44185;47.844;8.966;2023-08-12T01:15:15;96493.41;;;15.74;100.00
58385;BME280;44185;47.844;8.966;2023-08-12T01:17:43;96495.06;;;15.75;100.00
58385;BME280;44185;47.844;8.966;2023-08-12T01:20:09;96496.44;;;15.79;100.00
58385;BME280;44185;47.844;8.966;2023-08-12T01:22:37;96502.50;;;15.89;100.00
58385;BME280;44185;47.844;8.966;2023-08-12T01:25:05;96498.19;;;15.97;100.00
58385;BME280;44185;47.844;8.966;2023-08-12T01:27:30;96501.53;;;15.99;100.00
58385;BME280;44185;47.844;8.966;2023-08-12T01:29:56;96501.69;;;15.97;100.00
58385;BME280;44185;47.844;8.966;2023-08-12T01:32:25;96500.69;;;15.98;100.00
58385;BME280;44185;47.844;8.966;2023-08-12T01:34:59;96495.03;;;16.01;100.00
58385;BME280;44185;47.844;8.966;2023-08-12T01:37:28;96497.66;;;15.93;100.00
58385;BME280;44185;47.844;8.966;2023-08-12T01:39:55;96502.16;;;15.93;100.00
58385;BME280;44185;47.844;8.966;2023-08-12T01:42:23;96496.44;;;15.79;100.00
58385;BME280;44185;47.844;8.966;2023-08-12T01:44:49;96497.59;;;15.76;100.00
58385;BME280;44185;47.844;8.966;2023-08-12T01:47:15;96493.34;;;15.92;100.00
58385;BME280;44185;47.844;8.966;2023-08-12T01:49:40;96485.69;;;15.97;100.00
58385;BME280;44185;47.844;8.966;2023-08-12T01:52:06;96483.13;;;15.87;100.00
58385;BME280;44185;47.844;8.966;2023-08-12T01:54:31;96480.56;;;15.77;100.00
58385;BME280;44185;47.844;8.966;2023-08-12T01:56:57;96479.59;;;15.78;100.00
58385;BME280;44185;47.844;8.966;2023-08-12T01:59:24;96485.78;;;15.79;100.00
58385;BME280;44185;47.844;8.966;2023-08-12T02:01:49;96491.47;;;15.84;100.00
58385;BME280;44185;47.844;8.966;2023-08-12T02:04:14;96488.81;;;15.93;100.00
58385;BME280;44185;47.844;8.966;2023-08-12T02:06:40;96486.97;;;15.93;100.00
58385;BME280;44185;47.844;8.966;2023-08-12T02:09:05;96486.66;;;15.96;100.00
58385;BME280;44185;47.844;8.966;2023-08-12T02:11:31;96490.19;;;15.97;100.00
58385;BME280;44185;47.844;8.966;2023-08-12T02:13:56;96483.16;;;15.96;100.00
58385;BME280;44185;47.844;8.966;2023-08-12T02:16:23;96486.84;;;15.95;100.00
58385;BME280;44185;47.844;8.966;2023-08-12T02:18:48;96476.34;;;16.01;100.00
58385;BME280;44185;47.844;8.966;2023-08-12T02:21:14;96482.41;;;16.12;100.00
58385;BME280;44185;47.844;8.966;2023-08-12T02:23:39;96481.47;;;16.21;100.00
58385;BME280;44185;47.844;8.966;2023-08-12T02:26:05;96479.78;;;16.20;100.00
58385;BME280;44185;47.844;8.966;2023-08-12T02:28:30;96480.53;;;16.04;100.00
58385;BME280;44185;47.844;8.966;2023-08-12T02:30:55;96471.50;;;15.97;100.00
58385;BME280;44185;47.844;8.966;2023-08-12T02:33:22;96468.81;;;15.97;100.00
58385;BME280;44185;47.844;8.966;2023-08-12T02:35:48;96469.66;;;15.97;100.00
58385;BME280;44185;47.844;8.966;2023-08-12T02:38:13;96468.16;;;16.03;100.00
58385;BME280;44185;47.844;8.966;2023-08-12T02:40:38;96466.66;;;16.00;100.00
58385;BME280;44185;47.844;8.966;2023-08-12T02:43:04;96468.34;;;16.01;100.00
58385;BME280;44185;47.844;8.966;2023-08-12T02:45:29;96463.38;;;16.07;100.00
58385;BME280;44185;47.844;8.966;2023-08-12T02:47:55;96463.38;;;16.07;100.00
58385;BME280;44185;47.844;8.966;2023-08-12T02:50:21;96462.38;;;16.08;100.00
58385;BME280;44185;47.844;8.966;2023-08-12T02:52:47;96464.75;;;16.11;100.00
58385;BME280;44185;47.844;8.966;2023-08-12T02:55:13;96468.91;;;16.14;100.00
58385;BME280;44185;47.844;8.966;2023-08-12T02:57:38;96465.72;;;16.10;100.00
58385;BME280;44185;47.844;8.966;2023-08-12T03:00:05;96459.41;;;16.11;100.00
58385;BME280;44185;47.844;8.966;2023-08-12T03:02:31;96460.75;;;16.15;100.00
58385;BME280;44185;47.844;8.966;2023-08-12T03:04:56;96459.75;;;16.16;100.00
58385;BME280;44185;47.844;8.966;2023-08-12T03:07:23;96456.03;;;16.09;100.00
58385;BME280;44185;47.844;8.966;2023-08-12T03:09:48;96463.72;;;16.12;100.00
58385;BME280;44185;47.844;8.966;2023-08-12T03:12:14;96453.22;;;16.10;100.00
58385;BME280;44185;47.844;8.966;2023-08-12T03:14:39;96448.91;;;16.18;100.00
58385;BME280;44185;47.844;8.966;2023-08-12T03:17:04;96447.56;;;16.22;100.00
58385;BME280;44185;47.844;8.966;2023-08-12T03:19:30;96447.88;;;16.10;100.00
58385;BME280;44185;47.844;8.966;2023-08-12T03:21:55;96439.34;;;16.07;100.00
58385;BME280;44185;47.844;8.966;2023-08-12T03:24:22;96442.06;;;16.15;100.00
58385;BME280;44185;47.844;8.966;2023-08-12T03:26:48;96444.06;;;16.13;100.00
58385;BME280;44185;47.844;8.966;2023-08-12T03:29:13;96448.72;;;16.11;100.00
58385;BME280;44185;47.844;8.966;2023-08-12T03:31:38;96446.19;;;16.09;100.00
58385;BME280;44185;47.844;8.966;2023-08-12T03:34:04;96450.03;;;16.07;100.00
58385;BME280;44185;47.844;8.966;2023-08-12T03:36:29;96443.66;;;15.99;100.00
58385;BME280;44185;47.844;8.966;2023-08-12T03:38:55;96445.38;;;16.09;100.00
58385;BME280;44185;47.844;8.966;2023-08-12T03:41:22;96448.91;;;16.18;100.00
58385;BME280;44185;47.844;8.966;2023-08-12T03:43:47;96451.91;;;16.23;100.00
58385;BME280;44185;47.844;8.966;2023-08-12T03:46:13;96462.91;;;16.20;100.00
58385;BME280;44185;47.844;8.966;2023-08-12T03:48:38;96464.09;;;16.26;100.00
58385;BME280;44185;47.844;8.966;2023-08-12T03:51:04;96466.28;;;16.30;100.00
58385;BME280;44185;47.844;8.966;2023-08-12T03:53:29;96460.75;;;16.23;100.00
58385;BME280;44185;47.844;8.966;2023-08-12T03:55:55;96460.09;;;16.21;100.00
58385;BME280;44185;47.844;8.966;2023-08-12T03:58:21;96457.59;;;16.28;100.00
58385;BME280;44185;47.844;8.966;2023-08-12T04:00:47;96458.75;;;16.26;100.00
58385;BME280;44185;47.844;8.966;2023-08-12T04:03:13;96456.44;;;16.31;100.00
58385;BME280;44185;47.844;8.966;2023-08-12T04:05:47;96459.31;;;16.46;100.00
58385;BME280;44185;47.844;8.966;2023-08-12T04:08:13;96456.81;;;16.44;100.00
58385;BME280;44185;47.844;8.966;2023-08-12T04:10:38;96460.00;;;16.48;100.00
58385;BME280;44185;47.844;8.966;2023-08-12T04:13:04;96461.66;;;16.49;100.00
58385;BME280;44185;47.844;8.966;2023-08-12T04:15:31;96451.78;;;16.41;100.00
58385;BME280;44185;47.844;8.966;2023-08-12T04:17:56;96453.97;;;16.46;100.00
58385;BME280;44185;47.844;8.966;2023-08-12T04:20:21;96458.31;;;16.47;100.00
58385;BME280;44185;47.844;8.966;2023-08-12T04:22:47;96458.00;;;16.50;100.00
58385;BME280;44185;47.844;8.966;2023-08-12T04:25:13;96460.47;;;16.52;100.00
58385;BME280;44185;47.844;8.966;2023-08-12T04:27:38;96459.16;;;16.48;100.00
58385;BME280;44185;47.844;8.966;2023-08-12T04:30:05;96457.47;;;16.47;100.00
58385;BME280;44185;47.844;8.966;2023-08-12T04:32:32;96455.97;;;16.44;100.00
58385;BME280;44185;47.844;8.966;2023-08-12T04:34:58;96462.81;;;16.47;100.00
58385;BME280;44185;47.844;8.966;2023-08-12T04:37:23;96459.31;;;16.54;100.00
58385;BME280;44185;47.844;8.966;2023-08-12T04:39:49;96463.50;;;16.65;100.00
58385;BME280;44185;47.844;8.966;2023-08-12T04:42:14;96464.34;;;16.58;100.00
58385;BME280;44185;47.844;8.966;2023-08-12T04:44:40;96470.66;;;16.56;100.00
58385;BME280;44185;47.844;8.966;2023-08-12T04:47:05;96464.66;;;16.63;100.00
58385;BME280;44185;47.844;8.966;2023-08-12T04:49:32;96467.34;;;16.71;100.00
58385;BME280;44185;47.844;8.966;2023-08-12T04:51:58;96455.00;;;16.78;100.00
58385;BME280;44185;47.844;8.966;2023-08-12T04:54:23;96454.66;;;16.65;100.00
58385;BME280;44185;47.844;8.966;2023-08-12T04:56:49;96457.66;;;16.70;100.00
58385;BME280;44185;47.844;8.966;2023-08-12T04:59:14;96462.84;;;16.63;100.00
58385;BME280;44185;47.844;8.966;2023-08-12T05:01:40;96462.81;;;16.55;100.00
58385;BME280;44185;47.844;8.966;2023-08-12T05:04:05;96453.63;;;16.49;100.00
58385;BME280;44185;47.844;8.966;2023-08-12T05:06:32;96459.31;;;16.46;100.00
58385;BME280;44185;47.844;8.966;2023-08-12T05:08:58;96461.16;;;16.54;100.00
58385;BME280;44185;47.844;8.966;2023-08-12T05:11:23;96466.00;;;16.67;100.00
58385;BME280;44185;47.844;8.966;2023-08-12T05:13:49;96471.88;;;16.71;100.00
58385;BME280;44185;47.844;8.966;2023-08-12T05:16:14;96459.84;;;16.83;100.00
58385;BME280;44185;47.844;8.966;2023-08-12T05:18:40;96458.19;;;16.90;100.00
58385;BME280;44185;47.844;8.966;2023-08-12T05:21:05;96455.50;;;16.99;100.00
58385;BME280;44185;47.844;8.966;2023-08-12T05:23:32;96453.19;;;16.96;100.00
58385;BME280;44185;47.844;8.966;2023-08-12T05:25:58;96455.66;;;16.97;100.00
58385;BME280;44185;47.844;8.966;2023-08-12T05:28:23;96463.84;;;17.04;100.00
58385;BME280;44185;47.844;8.966;2023-08-12T05:30:49;96468.19;;;17.14;100.00
58385;BME280;44185;47.844;8.966;2023-08-12T05:33:14;96466.72;;;17.19;100.00
58385;BME280;44185;47.844;8.966;2023-08-12T05:35:40;96462.53;;;17.25;100.00
58385;BME280;44185;47.844;8.966;2023-08-12T05:38:05;96475.88;;;17.33;100.00
58385;BME280;44185;47.844;8.966;2023-08-12T05:40:32;96473.53;;;17.39;100.00
58385;BME280;44185;47.844;8.966;2023-08-12T05:42:58;96467.38;;;17.38;100.00
58385;BME280;44185;47.844;8.966;2023-08-12T05:45:23;96470.38;;;17.43;100.00
58385;BME280;44185;47.844;8.966;2023-08-12T05:47:49;96472.63;;;18.20;100.00
58385;BME280;44185;47.844;8.966;2023-08-12T05:50:14;96474.78;;;18.81;100.00
58385;BME280;44185;47.844;8.966;2023-08-12T05:52:40;96471.19;;;18.41;100.00
58385;BME280;44185;47.844;8.966;2023-08-12T05:55:06;96477.22;;;18.35;100.00
58385;BME280;44185;47.844;8.966;2023-08-12T05:57:33;96485.47;;;18.33;100.00
58385;BME280;44185;47.844;8.966;2023-08-12T05:59:58;96465.53;;;18.36;100.00
58385;BME280;44185;47.844;8.966;2023-08-12T06:02:24;96476.53;;;18.41;100.00
58385;BME280;44185;47.844;8.966;2023-08-12T06:04:50;96471.00;;;18.66;100.00
58385;BME280;44185;47.844;8.966;2023-08-12T06:07:15;96469.94;;;19.38;100.00
58385;BME280;44185;47.844;8.966;2023-08-12T06:09:41;96468.97;;;19.85;100.00
58385;BME280;44185;47.844;8.966;2023-08-12T06:12:07;96478.13;;;20.21;100.00
58385;BME280;44185;47.844;8.966;2023-08-12T06:14:38;96481.69;;;20.43;100.00
58385;BME280;44185;47.844;8.966;2023-08-12T06:17:03;96479.31;;;20.55;100.00
58385;BME280;44185;47.844;8.966;2023-08-12T06:19:29;96472.91;;;20.04;100.00
58385;BME280;44185;47.844;8.966;2023-08-12T06:21:54;96474.75;;;20.34;100.00
58385;BME280;44185;47.844;8.966;2023-08-12T06:24:20;96473.38;;;20.38;100.00
58385;BME280;44185;47.844;8.966;2023-08-12T06:26:45;96479.47;;;20.69;100.00
58385;BME280;44185;47.844;8.966;2023-08-12T06:29:10;96475.63;;;21.00;100.00
58385;BME280;44185;47.844;8.966;2023-08-12T06:31:37;96477.53;;;21.29;100.00
58385;BME280;44185;47.844;8.966;2023-08-12T06:34:03;96479.00;;;21.60;100.00
58385;BME280;44185;47.844;8.966;2023-08-12T06:36:29;96484.22;;;21.97;98.48
58385;BME280;44185;47.844;8.966;2023-08-12T06:38:54;96478.03;;;22.04;98.48
58385;BME280;44185;47.844;8.966;2023-08-12T06:41:20;96487.25;;;22.30;94.57
58385;BME280;44185;47.844;8.966;2023-08-12T06:43:45;96494.00;;;22.68;92.09
58385;BME280;44185;47.844;8.966;2023-08-12T06:46:11;96494.09;;;23.02;89.37
58385;BME280;44185;47.844;8.966;2023-08-12T06:48:37;96505.53;;;22.97;87.63
58385;BME280;44185;47.844;8.966;2023-08-12T06:51:03;96519.41;;;22.87;87.95
58385;BME280;44185;47.844;8.966;2023-08-12T06:53:28;96517.53;;;22.81;89.52
58385;BME280;44185;47.844;8.966;2023-08-12T06:55:54;96503.47;;;23.06;87.45
58385;BME280;44185;47.844;8.966;2023-08-12T06:58:19;96494.47;;;22.78;88.11
58385;BME280;44185;47.844;8.966;2023-08-12T07:00:45;96479.13;;;22.79;85.90
58385;BME280;44185;47.844;8.966;2023-08-12T07:03:10;96471.38;;;22.55;87.30
58385;BME280;44185;47.844;8.966;2023-08-12T07:05:37;96466.56;;;21.88;92.94
58385;BME280;44185;47.844;8.966;2023-08-12T07:08:03;96467.25;;;21.68;92.67
58385;BME280;44185;47.844;8.966;2023-08-12T07:10:29;96469.25;;;21.59;94.53
58385;BME280;44185;47.844;8.966;2023-08-12T07:12:54;96484.03;;;21.70;94.18
58385;BME280;44185;47.844;8.966;2023-08-12T07:15:20;96485.50;;;22.08;93.97
58385;BME280;44185;47.844;8.966;2023-08-12T07:17:45;96494.00;;;22.61;93.08
58385;BME280;44185;47.844;8.966;2023-08-12T07:20:11;96500.13;;;23.18;89.02
58385;BME280;44185;47.844;8.966;2023-08-12T07:22:37;96492.25;;;23.64;84.07
58385;BME280;44185;47.844;8.966;2023-08-12T07:25:03;96493.00;;;23.92;82.01
58385;BME280;44185;47.844;8.966;2023-08-12T07:27:29;96491.34;;;24.04;82.55
58385;BME280;44185;47.844;8.966;2023-08-12T07:29:54;96484.56;;;23.61;81.14
58385;BME280;44185;47.844;8.966;2023-08-12T07:32:21;96467.97;;;23.50;82.17
58385;BME280;44185;47.844;8.966;2023-08-12T07:34:46;96474.16;;;22.89;84.68
58385;BME280;44185;47.844;8.966;2023-08-12T07:37:12;96476.59;;;22.64;86.33
58385;BME280;44185;47.844;8.966;2023-08-12T07:39:39;96488.63;;;22.68;85.59
58385;BME280;44185;47.844;8.966;2023-08-12T07:42:05;96480.53;;;22.68;86.73
58385;BME280;44185;47.844;8.966;2023-08-12T07:44:30;96483.50;;;22.87;85.76
58385;BME280;44185;47.844;8.966;2023-08-12T07:46:55;96479.34;;;22.91;84.03
58385;BME280;44185;47.844;8.966;2023-08-12T07:49:21;96475.22;;;23.43;81.39
58385;BME280;44185;47.844;8.966;2023-08-12T07:51:46;96480.31;;;24.06;81.34
58385;BME280;44185;47.844;8.966;2023-08-12T07:54:12;96484.81;;;24.26;77.29
58385;BME280;44185;47.844;8.966;2023-08-12T07:56:39;96490.53;;;23.90;78.93
58385;BME280;44185;47.844;8.966;2023-08-12T07:59:04;96479.56;;;23.58;83.19
58385;BME280;44185;47.844;8.966;2023-08-12T08:01:29;96475.41;;;23.75;81.60
58385;BME280;44185;47.844;8.966;2023-08-12T08:03:55;96483.31;;;23.63;82.48
58385;BME280;44185;47.844;8.966;2023-08-12T08:06:22;96499.34;;;23.51;83.38
58385;BME280;44185;47.844;8.966;2023-08-12T08:08:47;96508.25;;;23.52;85.89
58385;BME280;44185;47.844;8.966;2023-08-12T08:11:13;96509.28;;;23.58;84.66
58385;BME280;44185;47.844;8.966;2023-08-12T08:13:40;96511.34;;;23.42;84.70
58385;BME280;44185;47.844;8.966;2023-08-12T08:16:05;96506.34;;;23.25;84.94
58385;BME280;44185;47.844;8.966;2023-08-12T08:18:31;96508.25;;;23.25;86.94
58385;BME280;44185;47.844;8.966;2023-08-12T08:20:56;96502.00;;;23.31;88.90
58385;BME280;44185;47.844;8.966;2023-08-12T08:23:22;96493.91;;;23.31;93.05
58385;BME280;44185;47.844;8.966;2023-08-12T08:25:47;96494.13;;;23.29;88.44
58385;BME280;44185;47.844;8.966;2023-08-12T08:28:13;96498.06;;;23.13;94.72
58385;BME280;44185;47.844;8.966;2023-08-12T08:30:40;96494.13;;;23.16;95.38
58385;BME280;44185;47.844;8.966;2023-08-12T08:33:05;96497.84;;;23.15;94.49
58385;BME280;44185;47.844;8.966;2023-08-12T08:35:31;96513.63;;;23.18;96.77
58385;BME280;44185;47.844;8.966;2023-08-12T08:37:56;96503.03;;;23.16;92.60
58385;BME280;44185;47.844;8.966;2023-08-12T08:40:22;96498.69;;;23.22;91.51
58385;BME280;44185;47.844;8.966;2023-08-12T08:42:51;96493.69;;;23.12;90.17
58385;BME280;44185;47.844;8.966;2023-08-12T08:45:17;96501.78;;;23.12;90.55
58385;BME280;44185;47.844;8.966;2023-08-12T08:47:44;96493.50;;;23.14;94.44
58385;BME280;44185;47.844;8.966;2023-08-12T08:50:12;96505.31;;;23.13;94.74
58385;BME280;44185;47.844;8.966;2023-08-12T08:52:38;96499.09;;;23.12;96.37
58385;BME280;44185;47.844;8.966;2023-08-12T08:55:04;96516.50;;;22.89;99.78
58385;BME280;44185;47.844;8.966;2023-08-12T08:57:29;96519.00;;;22.97;96.68
58385;BME280;44185;47.844;8.966;2023-08-12T08:59:55;96522.97;;;23.15;98.91
58385;BME280;44185;47.844;8.966;2023-08-12T09:02:20;96526.56;;;23.57;100.00
58385;BME280;44185;47.844;8.966;2023-08-12T09:04:47;96522.97;;;23.90;95.62
58385;BME280;44185;47.844;8.966;2023-08-12T09:07:13;96530.22;;;23.96;92.63
58385;BME280;44185;47.844;8.966;2023-08-12T09:09:40;96521.94;;;23.91;90.17
58385;BME280;44185;47.844;8.966;2023-08-12T09:12:08;96534.59;;;23.84;89.02
58385;BME280;44185;47.844;8.966;2023-08-12T09:14:35;96533.19;;;23.54;87.05
58385;BME280;44185;47.844;8.966;2023-08-12T09:17:00;96534.41;;;23.44;91.20
58385;BME280;44185;47.844;8.966;2023-08-12T09:19:26;96522.16;;;23.69;89.77
58385;BME280;44185;47.844;8.966;2023-08-12T09:21:53;96527.72;;;23.95;92.79
58385;BME280;44185;47.844;8.966;2023-08-12T09:24:23;96535.22;;;23.93;89.35
58385;BME280;44185;47.844;8.966;2023-08-12T09:26:51;96530.84;;;23.92;88.86
58385;BME280;44185;47.844;8.966;2023-08-12T09:29:17;96532.28;;;23.94;89.09
58385;BME280;44185;47.844;8.966;2023-08-12T09:31:43;96534.00;;;23.75;89.09
58385;BME280;44185;47.844;8.966;2023-08-12T09:34:08;96538.16;;;23.77;90.22
58385;BME280;44185;47.844;8.966;2023-08-12T09:36:34;96525.22;;;24.07;90.13
58385;BME280;44185;47.844;8.966;2023-08-12T09:39:05;96521.22;;;24.30;88.62
58385;BME280;44185;47.844;8.966;2023-08-12T09:41:31;96503.78;;;24.65;87.76
58385;BME280;44185;47.844;8.966;2023-08-12T09:43:58;96489.53;;;24.83;87.73
58385;BME280;44185;47.844;8.966;2023-08-12T09:46:23;96491.03;;;25.12;87.13
58385;BME280;44185;47.844;8.966;2023-08-12T09:48:49;96482.53;;;25.33;85.38
58385;BME280;44185;47.844;8.966;2023-08-12T09:51:15;96482.06;;;25.11;82.59
58385;BME280;44185;47.844;8.966;2023-08-12T09:53:41;96483.84;;;24.59;83.87
58385;BME280;44185;47.844;8.966;2023-08-12T09:56:11;96494.63;;;24.66;83.68
58385;BME280;44185;47.844;8.966;2023-08-12T09:58:37;96494.72;;;24.46;85.80
58385;BME280;44185;47.844;8.966;2023-08-12T10:01:05;96488.06;;;24.48;86.89
58385;BME280;44185;47.844;8.966;2023-08-12T10:03:32;96482.63;;;24.55;85.90
58385;BME280;44185;47.844;8.966;2023-08-12T10:05:58;96484.44;;;24.61;86.44
58385;BME280;44185;47.844;8.966;2023-08-12T10:08:25;96489.63;;;24.70;85.94
58385;BME280;44185;47.844;8.966;2023-08-12T10:10:52;96494.00;;;24.71;85.47
58385;BME280;44185;47.844;8.966;2023-08-12T10:13:19;96495.44;;;24.73;86.40
58385;BME280;44185;47.844;8.966;2023-08-12T10:15:45;96505.34;;;24.86;83.92
58385;BME280;44185;47.844;8.966;2023-08-12T10:18:12;96524.47;;;24.85;83.54
58385;BME280;44185;47.844;8.966;2023-08-12T10:20:38;96526.91;;;25.00;84.93
58385;BME280;44185;47.844;8.966;2023-08-12T10:23:04;96526.28;;;24.98;82.58
58385;BME280;44185;47.844;8.966;2023-08-12T10:25:32;96532.31;;;25.00;80.66
58385;BME280;44185;47.844;8.966;2023-08-12T10:27:58;96537.19;;;24.84;80.20
58385;BME280;44185;47.844;8.966;2023-08-12T10:30:28;96543.19;;;24.93;80.85
58385;BME280;44185;47.844;8.966;2023-08-12T10:32:53;96529.53;;;24.81;80.37
58385;BME280;44185;47.844;8.966;2023-08-12T10:35:19;96535.34;;;24.78;82.91
58385;BME280;44185;47.844;8.966;2023-08-12T10:37:48;96543.06;;;24.81;83.74
58385;BME280;44185;47.844;8.966;2023-08-12T10:40:20;96534.78;;;24.69;83.88
58385;BME280;44185;47.844;8.966;2023-08-12T10:42:46;96533.63;;;24.51;81.70
58385;BME280;44185;47.844;8.966;2023-08-12T10:45:13;96523.47;;;24.40;82.55
58385;BME280;44185;47.844;8.966;2023-08-12T10:47:41;96518.75;;;24.28;82.87
58385;BME280;44185;47.844;8.966;2023-08-12T10:50:16;96527.66;;;24.36;86.46
58385;BME280;44185;47.844;8.966;2023-08-12T10:52:42;96534.94;;;24.35;90.14
58385;BME280;44185;47.844;8.966;2023-08-12T10:55:21;96541.81;;;24.17;89.02
58385;BME280;44185;47.844;8.966;2023-08-12T10:57:47;96546.00;;;24.06;90.87
58385;BME280;44185;47.844;8.966;2023-08-12T11:00:14;96528.59;;;23.88;90.21
58385;BME280;44185;47.844;8.966;2023-08-12T11:02:44;96520.72;;;23.60;91.94
58385;BME280;44185;47.844;8.966;2023-08-12T11:05:11;96525.91;;;23.41;95.90
58385;BME280;44185;47.844;8.966;2023-08-12T11:07:38;96521.97;;;23.43;94.81
58385;BME280;44185;47.844;8.966;2023-08-12T11:10:05;96517.56;;;23.49;94.46
58385;BME280;44185;47.844;8.966;2023-08-12T11:12:34;96513.44;;;23.60;94.08
58385;BME280;44185;47.844;8.966;2023-08-12T11:15:01;96523.00;;;23.70;93.87
58385;BME280;44185;47.844;8.966;2023-08-12T11:17:29;96539.19;;;23.76;93.92
58385;BME280;44185;47.844;8.966;2023-08-12T11:19:59;96541.91;;;23.83;91.34
58385;BME280;44185;47.844;8.966;2023-08-12T11:22:24;96532.94;;;23.89;91.34
58385;BME280;44185;47.844;8.966;2023-08-12T11:24:50;96535.03;;;23.87;90.18
58385;BME280;44185;47.844;8.966;2023-08-12T11:27:16;96535.44;;;23.91;90.64
58385;BME280;44185;47.844;8.966;2023-08-12T11:29:43;96536.63;;;24.02;91.01
58385;BME280;44185;47.844;8.966;2023-08-12T11:32:08;96529.09;;;24.31;92.83
58385;BME280;44185;47.844;8.966;2023-08-12T11:34:34;96519.31;;;24.37;86.17
58385;BME280;44185;47.844;8.966;2023-08-12T11:37:03;96517.34;;;24.58;87.70
58385;BME280;44185;47.844;8.966;2023-08-12T11:39:28;96510.91;;;24.59;86.79
58385;BME280;44185;47.844;8.966;2023-08-12T11:41:55;96514.06;;;24.49;84.02
58385;BME280;44185;47.844;8.966;2023-08-12T11:44:21;96515.53;;;24.45;84.45
58385;BME280;44185;47.844;8.966;2023-08-12T11:46:47;96509.09;;;24.39;85.52
58385;BME280;44185;47.844;8.966;2023-08-12T11:49:13;96501.59;;;24.48;85.86
58385;BME280;44185;47.844;8.966;2023-08-12T11:51:38;96510.31;;;24.50;84.77
58385;BME280;44185;47.844;8.966;2023-08-12T11:54:05;96514.63;;;24.58;83.00
58385;BME280;44185;47.844;8.966;2023-08-12T11:56:31;96518.16;;;24.65;85.14
58385;BME280;44185;47.844;8.966;2023-08-12T11:58:57;96514.03;;;24.56;82.42
58385;BME280;44185;47.844;8.966;2023-08-12T12:01:22;96505.25;;;24.61;83.05
58385;BME280;44185;47.844;8.966;2023-08-12T12:03:50;96514.78;;;24.70;82.93
58385;BME280;44185;47.844;8.966;2023-08-12T12:06:16;96515.59;;;24.77;82.81
58385;BME280;44185;47.844;8.966;2023-08-12T12:08:41;96507.81;;;24.88;82.95
58385;BME280;44185;47.844;8.966;2023-08-12T12:11:10;96503.34;;;25.00;80.38
58385;BME280;44185;47.844;8.966;2023-08-12T12:13:35;96500.81;;;25.13;81.23
58385;BME280;44185;47.844;8.966;2023-08-12T12:16:01;96498.72;;;25.15;81.17
58385;BME280;44185;47.844;8.966;2023-08-12T12:18:26;96497.34;;;25.05;79.30
58385;BME280;44185;47.844;8.966;2023-08-12T12:20:56;96498.66;;;24.89;78.81
58385;BME280;44185;47.844;8.966;2023-08-12T12:23:22;96504.66;;;24.59;78.39
58385;BME280;44185;47.844;8.966;2023-08-12T12:25:47;96494.06;;;24.50;78.63
58385;BME280;44185;47.844;8.966;2023-08-12T12:28:14;96489.31;;;24.46;80.47
58385;BME280;44185;47.844;8.966;2023-08-12T12:30:40;96503.06;;;24.44;81.25
58385;BME280;44185;47.844;8.966;2023-08-12T12:33:05;96501.34;;;24.50;81.32
58385;BME280;44185;47.844;8.966;2023-08-12T12:35:31;96496.09;;;24.62;80.71
58385;BME280;44185;47.844;8.966;2023-08-12T12:37:56;96498.50;;;24.77;81.62
58385;BME280;44185;47.844;8.966;2023-08-12T12:40:21;96493.06;;;24.84;77.12
58385;BME280;44185;47.844;8.966;2023-08-12T12:42:47;96490.00;;;25.13;76.38
58385;BME280;44185;47.844;8.966;2023-08-12T12:45:14;96474.44;;;25.27;73.61
58385;BME280;44185;47.844;8.966;2023-08-12T12:47:40;96474.56;;;25.39;75.92
58385;BME280;44185;47.844;8.966;2023-08-12T12:50:06;96461.75;;;25.27;71.36